Time;durP1;ratioP1;P1;durP2;ratioP2;P2;SDS_P1;SDS_P2;PMS_P1;PMS_P2;Temp;Humidity;BMP_temperature;BMP_pressure;BME280_temperature;BME280_humidity;BME280_pressure;Samples;Min_cycle;Max_cycle;Signal;HPM_P1;HPM_P2
2021/08/16 00:01:27;;;;;;;6.70;5.60;;;;;;;;;;5113347;28;20449;-57
2021/08/16 00:03:54;;;;;;;9.80;5.97;;;;;;;;;;5113254;28;20937;-58
2021/08/16 00:06:21;;;;;;;7.67;6.20;;;;;;;;;;5113381;28;20436;-57
2021/08/16 00:08:49;;;;;;;6.63;5.33;;;;;;;;;;5113323;28;20929;-57
2021/08/16 00:11:16;;;;;;;9.70;6.87;;;;;;;;;;5113573;28;20449;-57
2021/08/16 00:13:43;;;;;;;7.00;5.90;;;;;;;;;;5113479;28;20554;-57
2021/08/16 00:16:10;;;;;;;10.50;5.80;;;;;;;;;;5113180;28;20933;-57
2021/08/16 00:18:39;;;;;;;5.43;4.93;;;;;;;;;;5113504;28;20490;-57
2021/08/16 00:21:06;;;;;;;11.07;6.40;;;;;;;;;;5113144;28;20445;-57
2021/08/16 00:23:33;;;;;;;13.13;7.30;;;;;;;;;;5114559;28;20433;-57
2021/08/16 00:26:01;;;;;;;7.50;5.70;;;;;;;;;;5117192;28;20889;-57
2021/08/16 00:28:28;;;;;;;6.87;5.87;;;;;;;;;;5117615;28;20487;-57
2021/08/16 00:30:55;;;;;;;8.83;5.90;;;;;;;;;;5117579;28;20449;-57
2021/08/16 00:33:22;;;;;;;8.97;6.43;;;;;;;;;;5117247;28;20498;-57
2021/08/16 00:35:51;;;;;;;6.90;6.03;;;;;;;;;;5117192;28;20514;-57
2021/08/16 00:38:19;;;;;;;7.53;5.80;;;;;;;;;;5117528;28;20437;-57
2021/08/16 00:40:46;;;;;;;8.90;6.87;;;;;;;;;;5117175;28;20929;-57
2021/08/16 00:43:13;;;;;;;8.40;6.37;;;;;;;;;;5117107;28;20441;-57
2021/08/16 00:45:40;;;;;;;9.20;6.43;;;;;;;;;;5117295;28;20506;-57
2021/08/16 00:48:09;;;;;;;7.97;6.40;;;;;;;;;;5117369;28;20490;-57
2021/08/16 00:50:36;;;;;;;8.67;6.20;;;;;;;;;;5117016;28;20502;-56
2021/08/16 00:53:05;;;;;;;8.20;5.90;;;;;;;;;;5117402;28;20489;-58
2021/08/16 00:55:32;;;;;;;8.90;5.70;;;;;;;;;;5117362;28;20526;-57
2021/08/16 00:58:00;;;;;;;7.10;5.60;;;;;;;;;;5117374;28;20490;-58
2021/08/16 01:00:28;;;;;;;6.80;5.60;;;;;;;;;;5116960;28;20904;-58
2021/08/16 01:02:55;;;;;;;9.47;5.10;;;;;;;;;;5117204;28;20437;-58
2021/08/16 01:05:22;;;;;;;6.60;6.00;;;;;;;;;;5116710;28;20999;-57
2021/08/16 01:07:50;;;;;;;8.80;7.90;;;;;;;;;;5116680;28;20502;-57
2021/08/16 01:10:20;;;;;;;9.97;6.87;;;;;;;;;;5116973;28;20446;-57
2021/08/16 01:12:48;;;;;;;13.00;6.63;;;;;;;;;;5116647;28;20428;-57
2021/08/16 01:15:16;;;;;;;8.13;5.67;;;;;;;;;;5116817;28;20468;-57
2021/08/16 01:17:43;;;;;;;7.83;6.27;;;;;;;;;;5116842;28;20498;-57
2021/08/16 01:20:11;;;;;;;8.97;5.90;;;;;;;;;;5116751;28;20929;-57
2021/08/16 01:22:39;;;;;;;8.30;6.27;;;;;;;;;;5116716;28;20441;-57
2021/08/16 01:25:07;;;;;;;6.97;6.27;;;;;;;;;;5116431;28;20472;-57
2021/08/16 01:27:36;;;;;;;9.87;6.33;;;;;;;;;;5116772;28;20437;-57
2021/08/16 01:30:04;;;;;;;7.40;6.63;;;;;;;;;;5116347;28;20449;-57
2021/08/16 01:32:31;;;;;;;7.37;5.30;;;;;;;;;;5116709;28;20445;-57
2021/08/16 01:34:58;;;;;;;8.20;5.70;;;;;;;;;;5117874;28;20457;-60
2021/08/16 01:37:26;;;;;;;5.73;5.23;;;;;;;;;;5116839;28;20843;-60
2021/08/16 01:39:53;;;;;;;8.53;5.83;;;;;;;;;;5116238;28;20450;-60
2021/08/16 01:42:20;;;;;;;9.70;6.73;;;;;;;;;;5116405;28;20442;-60
2021/08/16 01:44:49;;;;;;;8.10;5.93;;;;;;;;;;5116361;28;20457;-60
2021/08/16 01:47:16;;;;;;;6.83;5.17;;;;;;;;;;5116056;28;20441;-60
2021/08/16 01:49:43;;;;;;;7.57;5.90;;;;;;;;;;5116303;28;20816;-60
2021/08/16 01:52:11;;;;;;;6.73;5.10;;;;;;;;;;5116180;28;20446;-59
2021/08/16 01:54:39;;;;;;;6.60;5.93;;;;;;;;;;5116123;28;20556;-60
2021/08/16 01:57:07;;;;;;;7.07;5.23;;;;;;;;;;5116077;28;20453;-60
2021/08/16 01:59:34;;;;;;;8.37;5.00;;;;;;;;;;5115793;28;20874;-60
2021/08/16 02:02:03;;;;;;;7.77;5.30;;;;;;;;;;5115659;28;20993;-60
2021/08/16 02:04:30;;;;;;;8.20;5.57;;;;;;;;;;5115638;28;20965;-60
2021/08/16 02:06:57;;;;;;;11.03;6.20;;;;;;;;;;5115902;28;20450;-59
2021/08/16 02:09:24;;;;;;;6.03;5.20;;;;;;;;;;5115889;28;20442;-61
2021/08/16 02:11:51;;;;;;;8.90;5.30;;;;;;;;;;5115501;28;20499;-60
2021/08/16 02:14:19;;;;;;;10.40;5.30;;;;;;;;;;5115607;28;20538;-59
2021/08/16 02:16:46;;;;;;;8.50;5.20;;;;;;;;;;5115444;28;20871;-60
2021/08/16 02:19:15;;;;;;;7.50;4.83;;;;;;;;;;5115647;27;20477;-59
2021/08/16 02:21:42;;;;;;;6.33;4.60;;;;;;;;;;5115800;28;20499;-59
2021/08/16 02:24:09;;;;;;;7.90;5.50;;;;;;;;;;5115226;28;21257;-60
2021/08/16 02:26:37;;;;;;;9.37;5.73;;;;;;;;;;5115540;28;20422;-59
2021/08/16 02:29:04;;;;;;;5.60;5.00;;;;;;;;;;5115396;28;20437;-59
2021/08/16 02:31:31;;;;;;;6.50;5.40;;;;;;;;;;5115474;28;20437;-59
2021/08/16 02:33:59;;;;;;;7.20;5.93;;;;;;;;;;5115496;28;20522;-59
2021/08/16 02:36:27;;;;;;;6.07;5.47;;;;;;;;;;5115322;28;20529;-61
2021/08/16 02:38:55;;;;;;;6.50;4.90;;;;;;;;;;5115062;28;20996;-59
2021/08/16 02:41:22;;;;;;;7.00;4.90;;;;;;;;;;5116649;28;20491;-59
2021/08/16 02:43:49;;;;;;;7.27;5.37;;;;;;;;;;5119717;28;20486;-61
2021/08/16 02:46:19;;;;;;;6.20;4.90;;;;;;;;;;5121066;28;20498;-60
2021/08/16 02:48:46;;;;;;;6.80;5.47;;;;;;;;;;5123164;28;20953;-60
2021/08/16 02:51:14;;;;;;;10.93;5.67;;;;;;;;;;5122587;28;20498;-59
2021/08/16 02:53:42;;;;;;;7.40;5.50;;;;;;;;;;5118419;28;20473;-59
2021/08/16 02:56:10;;;;;;;5.20;4.57;;;;;;;;;;5114596;28;20965;-60
2021/08/16 02:58:37;;;;;;;9.57;5.10;;;;;;;;;;5114861;28;20499;-59
2021/08/16 03:01:04;;;;;;;9.47;5.43;;;;;;;;;;5114841;28;20766;-59
2021/08/16 03:03:31;;;;;;;6.03;5.00;;;;;;;;;;5114410;28;20806;-60
2021/08/16 03:05:58;;;;;;;7.13;6.03;;;;;;;;;;5114763;28;20457;-59
2021/08/16 03:08:26;;;;;;;6.63;5.50;;;;;;;;;;5114725;28;20453;-59
2021/08/16 03:10:54;;;;;;;7.23;6.00;;;;;;;;;;5114597;28;20491;-59
2021/08/16 03:13:21;;;;;;;6.80;5.37;;;;;;;;;;5114532;28;20498;-59
2021/08/16 03:15:49;;;;;;;7.30;5.83;;;;;;;;;;5114597;28;20461;-60
2021/08/16 03:18:16;;;;;;;6.73;5.10;;;;;;;;;;5114371;28;20494;-59
2021/08/16 03:20:43;;;;;;;8.90;5.93;;;;;;;;;;5115551;28;20490;-60
2021/08/16 03:23:10;;;;;;;12.33;5.30;;;;;;;;;;5114909;28;20441;-59
2021/08/16 03:25:38;;;;;;;8.50;6.30;;;;;;;;;;5114169;28;20473;-59
2021/08/16 03:28:06;;;;;;;9.13;5.90;;;;;;;;;;5114750;28;20498;-60
2021/08/16 03:30:34;;;;;;;6.03;5.40;;;;;;;;;;5115341;28;20453;-60
2021/08/16 03:33:01;;;;;;;8.10;5.27;;;;;;;;;;5114340;28;20499;-60
2021/08/16 03:35:28;;;;;;;7.80;5.90;;;;;;;;;;5114040;28;20485;-60
2021/08/16 03:37:55;;;;;;;7.73;5.43;;;;;;;;;;5113980;28;20486;-59
2021/08/16 03:40:23;;;;;;;10.67;5.80;;;;;;;;;;5114170;28;20491;-60
2021/08/16 03:42:50;;;;;;;7.20;5.40;;;;;;;;;;5114232;28;20441;-60
2021/08/16 03:45:20;;;;;;;10.00;5.30;;;;;;;;;;5114843;28;20465;-59
2021/08/16 03:47:47;;;;;;;7.93;4.93;;;;;;;;;;5114126;28;20498;-60
2021/08/16 03:50:15;;;;;;;6.87;5.10;;;;;;;;;;5113974;28;20449;-60
2021/08/16 03:52:42;;;;;;;5.10;4.57;;;;;;;;;;5113913;28;20494;-59
2021/08/16 03:55:09;;;;;;;6.57;4.80;;;;;;;;;;5113750;28;20476;-60
2021/08/16 03:57:37;;;;;;;8.50;5.47;;;;;;;;;;5113760;28;20525;-60
2021/08/16 04:00:06;;;;;;;6.87;5.10;;;;;;;;;;5113266;28;20937;-59
2021/08/16 04:02:34;;;;;;;7.23;5.00;;;;;;;;;;5113744;28;20442;-59
2021/08/16 04:08:27;;;;;;;7.30;5.93;;;;;;;;;;5132465;27;20591;-60
2021/08/16 04:10:54;;;;;;;8.20;5.20;;;;;;;;;;5131942;28;20437;-60
2021/08/16 04:13:22;;;;;;;6.10;5.00;;;;;;;;;;5131668;28;20448;-60
2021/08/16 04:15:49;;;;;;;7.00;6.00;;;;;;;;;;5131127;28;20524;-61
2021/08/16 04:18:16;;;;;;;6.53;5.77;;;;;;;;;;5131496;28;20448;-61
2021/08/16 04:20:43;;;;;;;5.60;5.07;;;;;;;;;;5131135;28;20853;-61
2021/08/16 04:23:11;;;;;;;10.63;6.83;;;;;;;;;;5131285;28;20440;-61
2021/08/16 04:25:39;;;;;;;6.83;5.70;;;;;;;;;;5131283;28;20850;-59
2021/08/16 04:28:06;;;;;;;7.27;6.37;;;;;;;;;;5131236;28;20477;-61
2021/08/16 04:30:34;;;;;;;7.60;6.70;;;;;;;;;;5131396;28;20506;-60
2021/08/16 04:33:01;;;;;;;7.57;5.63;;;;;;;;;;5131020;28;20440;-60
2021/08/16 04:35:28;;;;;;;9.13;7.40;;;;;;;;;;5131337;28;20456;-60
2021/08/16 04:37:55;;;;;;;8.17;6.23;;;;;;;;;;5131478;28;20457;-60
2021/08/16 04:40:22;;;;;;;8.77;7.17;;;;;;;;;;5130982;28;20436;-60
2021/08/16 04:42:51;;;;;;;6.90;6.27;;;;;;;;;;5130747;28;21058;-60
2021/08/16 04:45:19;;;;;;;9.87;6.60;;;;;;;;;;5130904;28;20468;-60
2021/08/16 04:47:46;;;;;;;8.73;6.50;;;;;;;;;;5131010;28;20522;-60
2021/08/16 04:50:14;;;;;;;7.80;6.83;;;;;;;;;;5130948;28;20497;-60
2021/08/16 04:52:42;;;;;;;11.53;6.87;;;;;;;;;;5131299;28;20973;-60
2021/08/16 04:55:10;;;;;;;7.70;7.00;;;;;;;;;;5130650;28;20867;-61
2021/08/16 04:57:38;;;;;;;8.67;6.47;;;;;;;;;;5130737;28;20437;-61
2021/08/16 05:00:09;;;;;;;9.17;6.67;;;;;;;;;;5130657;28;20440;-60
2021/08/16 05:02:36;;;;;;;8.47;7.00;;;;;;;;;;5130777;28;20421;-60
2021/08/16 05:05:08;;;;;;;7.83;7.13;;;;;;;;;;5130354;28;20460;-59
2021/08/16 05:07:35;;;;;;;8.50;6.50;;;;;;;;;;5130323;28;20481;-59
2021/08/16 05:10:03;;;;;;;10.87;7.70;;;;;;;;;;5130442;28;20494;-61
2021/08/16 05:12:30;;;;;;;11.47;7.67;;;;;;;;;;5130768;28;20436;-61
2021/08/16 05:14:57;;;;;;;8.77;7.67;;;;;;;;;;5130271;28;20461;-59
2021/08/16 05:17:26;;;;;;;8.20;7.00;;;;;;;;;;5130206;28;20937;-60
2021/08/16 05:19:54;;;;;;;9.20;6.77;;;;;;;;;;5116268;28;20473;-60
2021/08/16 05:22:21;;;;;;;11.23;6.23;;;;;;;;;;5116837;28;20581;-60
2021/08/16 05:24:48;;;;;;;11.20;7.83;;;;;;;;;;5116528;28;20976;-60
2021/08/16 05:27:15;;;;;;;9.33;6.17;;;;;;;;;;5116764;28;20489;-60
2021/08/16 05:29:42;;;;;;;9.07;7.10;;;;;;;;;;5116819;28;20441;-60
2021/08/16 05:32:10;;;;;;;9.93;6.27;;;;;;;;;;5132822;22;20491;-55
2021/08/16 05:34:39;;;;;;;13.90;6.23;;;;;;;;;;5075516;28;20942;-54
2021/08/16 05:37:06;;;;;;;12.83;7.00;;;;;;;;;;5075365;28;20439;-54
2021/08/16 05:39:33;;;;;;;8.07;5.87;;;;;;;;;;5075637;28;20451;-54
2021/08/16 05:42:02;;;;;;;9.90;5.33;;;;;;;;;;5075424;28;20459;-54
2021/08/16 05:44:29;;;;;;;7.67;6.20;;;;;;;;;;5075382;28;20450;-53
2021/08/16 05:46:57;;;;;;;7.20;6.47;;;;;;;;;;5075479;28;20537;-54
2021/08/16 05:49:24;;;;;;;5.97;5.27;;;;;;;;;;5075061;28;20493;-54
2021/08/16 05:51:52;;;;;;;10.43;6.53;;;;;;;;;;5075314;28;20501;-54
2021/08/16 05:54:20;;;;;;;7.50;5.80;;;;;;;;;;5075023;28;20444;-53
2021/08/16 05:56:47;;;;;;;9.97;6.80;;;;;;;;;;5075196;28;20443;-54
2021/08/16 05:59:14;;;;;;;11.83;6.73;;;;;;;;;;5075241;28;20447;-54
2021/08/16 06:01:41;;;;;;;10.00;6.63;;;;;;;;;;5074624;28;20834;-54
2021/08/16 06:04:09;;;;;;;11.83;7.17;;;;;;;;;;5074620;28;20500;-55
2021/08/16 06:06:36;;;;;;;10.67;8.43;;;;;;;;;;5074944;28;20435;-55
2021/08/16 06:09:05;;;;;;;10.00;7.80;;;;;;;;;;5075219;28;20447;-55
2021/08/16 06:11:33;;;;;;;13.50;9.60;;;;;;;;;;5075125;28;20867;-55
2021/08/16 06:14:00;;;;;;;8.87;8.00;;;;;;;;;;5075123;28;20435;-55
2021/08/16 06:16:27;;;;;;;9.20;8.20;;;;;;;;;;5074862;28;20497;-55
2021/08/16 06:18:55;;;;;;;13.77;9.87;;;;;;;;;;5074744;28;20447;-54
2021/08/16 06:21:22;;;;;;;12.57;10.07;;;;;;;;;;5075033;28;20439;-55
2021/08/16 06:23:49;;;;;;;11.67;9.77;;;;;;;;;;5074053;28;20997;-55
2021/08/16 06:26:18;;;;;;;12.43;8.90;;;;;;;;;;5074315;28;20520;-55
2021/08/16 06:28:46;;;;;;;14.83;10.33;;;;;;;;;;5074453;28;20479;-54
2021/08/16 06:31:13;;;;;;;11.43;10.03;;;;;;;;;;5073426;28;20446;-54
2021/08/16 06:33:41;;;;;;;14.43;9.40;;;;;;;;;;5074404;28;20534;-55
2021/08/16 06:36:09;;;;;;;11.23;9.97;;;;;;;;;;5074141;28;20454;-55
2021/08/16 06:38:37;;;;;;;11.43;8.87;;;;;;;;;;5074511;28;20493;-55
2021/08/16 06:41:04;;;;;;;17.73;9.30;;;;;;;;;;5074156;28;20482;-55
2021/08/16 06:43:33;;;;;;;12.53;9.00;;;;;;;;;;5074365;28;20464;-54
2021/08/16 06:46:01;;;;;;;9.40;8.23;;;;;;;;;;5074301;28;20443;-55
2021/08/16 06:48:28;;;;;;;14.43;9.07;;;;;;;;;;5074112;28;20522;-54
2021/08/16 06:50:56;;;;;;;10.63;9.53;;;;;;;;;;5074078;28;20439;-56
2021/08/16 06:53:23;;;;;;;9.97;8.23;;;;;;;;;;5073963;28;20471;-54
2021/08/16 06:55:51;;;;;;;11.00;9.17;;;;;;;;;;5073596;28;20931;-54
2021/08/16 06:58:18;;;;;;;11.87;9.50;;;;;;;;;;5074136;28;20467;-55
2021/08/16 07:00:47;;;;;;;13.40;8.93;;;;;;;;;;5073923;28;20447;-53
2021/08/16 07:03:14;;;;;;;12.13;8.00;;;;;;;;;;5073691;28;20459;-55
2021/08/16 07:05:42;;;;;;;9.77;8.83;;;;;;;;;;5073617;28;20451;-54
2021/08/16 07:08:10;;;;;;;12.20;8.97;;;;;;;;;;5073771;28;20566;-54
2021/08/16 07:10:37;;;;;;;10.17;8.80;;;;;;;;;;5074584;28;20483;-53
2021/08/16 07:13:04;;;;;;;15.47;9.20;;;;;;;;;;5073821;28;20475;-55
2021/08/16 07:15:31;;;;;;;17.27;10.63;;;;;;;;;;5073661;28;20471;-55
2021/08/16 07:18:00;;;;;;;13.63;8.87;;;;;;;;;;5073621;28;20443;-55
2021/08/16 07:20:29;;;;;;;12.00;8.60;;;;;;;;;;5073363;28;20522;-55
2021/08/16 07:22:56;;;;;;;12.87;8.77;;;;;;;;;;5073486;28;20478;-55
2021/08/16 07:25:23;;;;;;;11.33;8.60;;;;;;;;;;5073615;28;20862;-55
2021/08/16 07:27:51;;;;;;;11.67;8.33;;;;;;;;;;5073705;28;20490;-55
2021/08/16 07:30:18;;;;;;;12.03;8.10;;;;;;;;;;5073167;28;20870;-54
2021/08/16 07:32:45;;;;;;;10.23;8.53;;;;;;;;;;5072901;28;20520;-55
2021/08/16 07:35:14;;;;;;;10.70;8.87;;;;;;;;;;5073382;28;20455;-56
2021/08/16 07:37:41;;;;;;;11.30;8.27;;;;;;;;;;5073245;28;20440;-53
2021/08/16 07:40:09;;;;;;;8.60;7.30;;;;;;;;;;5073335;28;20444;-55
2021/08/16 07:42:36;;;;;;;10.93;8.37;;;;;;;;;;5072676;28;20967;-55
2021/08/16 07:45:04;;;;;;;10.20;7.60;;;;;;;;;;5072846;28;20861;-57
2021/08/16 07:47:31;;;;;;;11.90;7.83;;;;;;;;;;5072809;28;20851;-55
2021/08/16 07:49:59;;;;;;;11.83;8.10;;;;;;;;;;5072791;28;20505;-55
2021/08/16 07:52:27;;;;;;;13.93;8.50;;;;;;;;;;5072979;28;21074;-55
2021/08/16 07:54:55;;;;;;;11.60;7.93;;;;;;;;;;5073053;28;20546;-55
2021/08/16 07:57:23;;;;;;;13.80;8.00;;;;;;;;;;5073059;28;20457;-54
2021/08/16 07:59:50;;;;;;;10.93;7.77;;;;;;;;;;5072738;28;20437;-55
2021/08/16 08:02:17;;;;;;;12.27;7.67;;;;;;;;;;5072984;28;20478;-55
2021/08/16 08:04:44;;;;;;;12.00;7.67;;;;;;;;;;5073133;28;20447;-55
2021/08/16 08:07:12;;;;;;;12.63;8.10;;;;;;;;;;5072684;28;20452;-55
2021/08/16 08:09:40;;;;;;;9.67;7.47;;;;;;;;;;5073018;28;20487;-55
2021/08/16 08:12:07;;;;;;;12.20;8.60;;;;;;;;;;5072980;28;20518;-55
2021/08/16 08:14:35;;;;;;;13.50;8.20;;;;;;;;;;5073003;28;20441;-55
2021/08/16 08:17:02;;;;;;;11.83;9.17;;;;;;;;;;5073419;28;20442;-57
2021/08/16 08:19:29;;;;;;;9.20;7.90;;;;;;;;;;5073248;28;20499;-55
2021/08/16 08:21:56;;;;;;;11.83;8.07;;;;;;;;;;5073433;28;20465;-55
2021/08/16 08:24:24;;;;;;;11.60;8.00;;;;;;;;;;5072829;28;20453;-55
2021/08/16 08:26:52;;;;;;;10.93;8.33;;;;;;;;;;5073105;28;20445;-55
2021/08/16 08:29:20;;;;;;;12.60;8.70;;;;;;;;;;5073607;28;20478;-57
2021/08/16 08:31:47;;;;;;;11.73;8.67;;;;;;;;;;5072781;28;20449;-56
2021/08/16 08:34:14;;;;;;;11.07;9.83;;;;;;;;;;5073492;28;20503;-56
2021/08/16 08:36:43;;;;;;;11.33;9.13;;;;;;;;;;5073010;28;20464;-55
2021/08/16 08:39:11;;;;;;;15.83;10.20;;;;;;;;;;5072957;28;20450;-58
2021/08/16 08:41:38;;;;;;;10.67;9.03;;;;;;;;;;5072131;28;20446;-55
2021/08/16 08:44:12;;;;;;;10.53;8.77;;;;;;;;;;5072719;28;20445;-55
2021/08/16 08:46:41;;;;;;;16.70;10.93;;;;;;;;;;5072818;28;20518;-55
2021/08/16 08:49:08;;;;;;;12.30;9.50;;;;;;;;;;5072492;28;20893;-55
2021/08/16 08:51:36;;;;;;;11.00;8.47;;;;;;;;;;5072464;28;20485;-55
2021/08/16 08:54:03;;;;;;;10.20;9.20;;;;;;;;;;5074346;28;20470;-54
2021/08/16 08:56:30;;;;;;;10.63;8.87;;;;;;;;;;5076044;28;20455;-56
2021/08/16 08:58:58;;;;;;;10.60;8.40;;;;;;;;;;5076074;28;20524;-55
2021/08/16 09:01:27;;;;;;;10.17;8.60;;;;;;;;;;5076123;28;20457;-55
2021/08/16 09:03:55;;;;;;;14.83;8.50;;;;;;;;;;5076025;28;20474;-55
2021/08/16 09:06:31;;;;;;;22.27;9.23;;;;;;;;;;5075954;28;20451;-55
2021/08/16 09:08:59;;;;;;;10.70;8.40;;;;;;;;;;5075670;28;21027;-55
2021/08/16 09:11:27;;;;;;;9.37;8.40;;;;;;;;;;5075845;28;20462;-55
2021/08/16 09:13:57;;;;;;;12.57;10.30;;;;;;;;;;5075501;28;20882;-55
2021/08/16 09:16:24;;;;;;;11.17;8.80;;;;;;;;;;5075777;28;20526;-55
2021/08/16 09:18:53;;;;;;;8.83;7.93;;;;;;;;;;5075436;28;20497;-56
2021/08/16 09:21:29;;;;;;;9.90;8.90;;;;;;;;;;5075244;28;20444;-56
2021/08/16 09:23:57;;;;;;;11.70;9.17;;;;;;;;;;5076282;28;20462;-55
2021/08/16 09:26:26;;;;;;;9.97;9.03;;;;;;;;;;5075664;28;20553;-56
2021/08/16 09:28:53;;;;;;;10.70;9.70;;;;;;;;;;5075448;28;20596;-58
2021/08/16 09:31:23;;;;;;;14.80;9.33;;;;;;;;;;5075931;28;20550;-60
2021/08/16 09:33:56;;;;;;;14.17;8.83;;;;;;;;;;5075518;28;21103;-57
2021/08/16 09:36:24;;;;;;;10.63;9.47;;;;;;;;;;5075590;28;20450;-56
2021/08/16 09:38:51;;;;;;;9.60;8.60;;;;;;;;;;5075582;28;20447;-55
2021/08/16 09:41:23;;;;;;;11.73;8.43;;;;;;;;;;5075358;28;20949;-56
2021/08/16 09:43:50;;;;;;;11.87;8.67;;;;;;;;;;5075115;28;20545;-56
2021/08/16 09:46:18;;;;;;;9.10;8.20;;;;;;;;;;5075155;28;20933;-56
2021/08/16 09:48:55;;;;;;;15.93;9.57;;;;;;;;;;5075101;28;20480;-56
2021/08/16 09:51:24;;;;;;;10.73;8.53;;;;;;;;;;5075070;28;20437;-57
2021/08/16 09:53:52;;;;;;;11.37;8.20;;;;;;;;;;5075019;28;20539;-53
2021/08/16 09:56:20;;;;;;;11.60;7.43;;;;;;;;;;5074681;28;20928;-57
2021/08/16 09:58:48;;;;;;;9.23;7.83;;;;;;;;;;5075093;28;20500;-57
2021/08/16 10:01:15;;;;;;;9.90;7.80;;;;;;;;;;5074986;28;20444;-56
2021/08/16 10:03:42;;;;;;;11.77;7.83;;;;;;;;;;5074738;28;20465;-56
2021/08/16 10:06:10;;;;;;;10.47;8.30;;;;;;;;;;5074723;28;20869;-56
2021/08/16 10:08:41;;;;;;;11.00;7.37;;;;;;;;;;5075019;28;20534;-56
2021/08/16 10:11:08;;;;;;;9.03;8.10;;;;;;;;;;5074477;28;20463;-57
2021/08/16 10:13:37;;;;;;;10.03;8.40;;;;;;;;;;5074313;28;21014;-56
2021/08/16 10:16:08;;;;;;;9.40;8.13;;;;;;;;;;5074994;28;20504;-55
2021/08/16 10:18:36;;;;;;;9.57;7.37;;;;;;;;;;5075060;28;20435;-56
2021/08/16 10:21:08;;;;;;;13.33;7.27;;;;;;;;;;5075017;28;20452;-55
2021/08/16 10:23:35;;;;;;;10.00;6.87;;;;;;;;;;5074184;28;20511;-55
2021/08/16 10:26:03;;;;;;;10.97;8.10;;;;;;;;;;5074656;28;20494;-57
2021/08/16 10:28:32;;;;;;;11.90;6.80;;;;;;;;;;5074075;28;20479;-56
2021/08/16 10:31:00;;;;;;;10.07;7.23;;;;;;;;;;5073622;28;20474;-56
2021/08/16 10:33:27;;;;;;;8.77;6.60;;;;;;;;;;5073985;28;20991;-56
2021/08/16 10:35:55;;;;;;;8.60;6.90;;;;;;;;;;5074372;28;20904;-55
2021/08/16 10:38:24;;;;;;;10.40;7.10;;;;;;;;;;5073773;28;20799;-56
2021/08/16 10:40:52;;;;;;;8.40;7.17;;;;;;;;;;5073785;28;20451;-55
2021/08/16 10:43:22;;;;;;;9.17;6.90;;;;;;;;;;5074220;28;20516;-55
2021/08/16 10:45:49;;;;;;;9.83;8.67;;;;;;;;;;5074054;28;20448;-56
2021/08/16 10:48:26;;;;;;;11.70;9.40;;;;;;;;;;5074026;28;20860;-57
2021/08/16 10:51:06;;;;;;;11.80;8.47;;;;;;;;;;5073437;28;20910;-57
2021/08/16 10:53:34;;;;;;;9.90;8.87;;;;;;;;;;5073818;28;20521;-54
2021/08/16 10:56:01;;;;;;;15.37;9.17;;;;;;;;;;5073893;28;20546;-56
2021/08/16 10:58:31;;;;;;;13.90;9.77;;;;;;;;;;5073901;28;21027;-56
2021/08/16 11:00:58;;;;;;;13.13;10.80;;;;;;;;;;5074296;28;20497;-56
2021/08/16 11:03:26;;;;;;;15.60;11.57;;;;;;;;;;5073804;28;20508;-55
2021/08/16 11:05:53;;;;;;;15.53;10.40;;;;;;;;;;5073803;28;20534;-55
2021/08/16 11:08:30;;;;;;;14.50;11.13;;;;;;;;;;5073179;28;20455;-54
2021/08/16 11:10:57;;;;;;;16.23;11.90;;;;;;;;;;5073881;28;20514;-54
2021/08/16 11:13:24;;;;;;;13.23;11.07;;;;;;;;;;5073753;28;20462;-55
2021/08/16 11:15:53;;;;;;;13.80;11.60;;;;;;;;;;5072844;28;20513;-54
2021/08/16 11:18:21;;;;;;;14.30;10.77;;;;;;;;;;5073175;28;20478;-55
2021/08/16 11:20:56;;;;;;;13.30;11.90;;;;;;;;;;5073385;28;21012;-54
2021/08/16 11:23:24;;;;;;;14.57;11.03;;;;;;;;;;5073191;28;20471;-54
2021/08/16 11:25:53;;;;;;;14.90;11.83;;;;;;;;;;5075252;28;20443;-56
2021/08/16 11:28:21;;;;;;;17.60;11.10;;;;;;;;;;5072954;28;20479;-54
2021/08/16 11:30:49;;;;;;;11.00;9.97;;;;;;;;;;5073415;28;20451;-55
2021/08/16 11:33:27;;;;;;;10.30;7.20;;;;;;;;;;5107904;22;20512;-59
2021/08/16 11:36:04;;;;;;;6.47;5.07;;;;;;;;;;5053670;28;20929;-59
2021/08/16 11:38:32;;;;;;;6.30;5.10;;;;;;;;;;5052820;28;20428;-57
2021/08/16 11:41:06;;;;;;;6.80;4.87;;;;;;;;;;5053862;28;20447;-59
2021/08/16 11:43:33;;;;;;;7.30;4.40;;;;;;;;;;5053683;28;20590;-59
2021/08/16 11:46:10;;;;;;;4.70;4.30;;;;;;;;;;5053723;28;20448;-58
2021/08/16 11:48:39;;;;;;;5.17;3.90;;;;;;;;;;5053614;28;20436;-60
2021/08/16 11:51:06;;;;;;;4.00;3.40;;;;;;;;;;5053216;28;20465;-59
2021/08/16 11:53:43;;;;;;;5.67;3.27;;;;;;;;;;5052954;28;20471;-58
2021/08/16 11:56:10;;;;;;;7.50;3.70;;;;;;;;;;5053186;28;20844;-58
2021/08/16 11:58:38;;;;;;;4.10;3.17;;;;;;;;;;5052715;28;20440;-58
2021/08/16 12:01:06;;;;;;;4.00;3.60;;;;;;;;;;5053051;28;20440;-58
2021/08/16 12:03:33;;;;;;;6.43;3.57;;;;;;;;;;5052675;28;20471;-57
2021/08/16 12:06:02;;;;;;;4.40;4.00;;;;;;;;;;5052766;28;20536;-57
2021/08/16 12:08:30;;;;;;;6.27;5.67;;;;;;;;;;5052567;28;20951;-57
2021/08/16 12:10:57;;;;;;;4.70;3.77;;;;;;;;;;5053008;28;20448;-57
2021/08/16 12:13:25;;;;;;;4.90;3.60;;;;;;;;;;5052401;28;20764;-58
2021/08/16 12:15:53;;;;;;;5.00;3.70;;;;;;;;;;5052655;28;20860;-57
2021/08/16 12:18:28;;;;;;;6.23;3.87;;;;;;;;;;5052449;28;20873;-58
2021/08/16 12:20:56;;;;;;;4.17;3.77;;;;;;;;;;5052832;28;20486;-57
2021/08/16 12:23:26;;;;;;;5.17;3.43;;;;;;;;;;5052548;28;20464;-58
2021/08/16 12:25:53;;;;;;;5.90;3.60;;;;;;;;;;5052186;28;20444;-57
2021/08/16 12:28:20;;;;;;;4.50;4.03;;;;;;;;;;5052881;28;20513;-57
2021/08/16 12:30:48;;;;;;;4.10;3.30;;;;;;;;;;5056111;28;20471;-58
2021/08/16 12:33:16;;;;;;;4.60;3.43;;;;;;;;;;5056041;28;20818;-56
2021/08/16 12:35:55;;;;;;;4.77;3.50;;;;;;;;;;5056103;28;20440;-58
2021/08/16 12:38:28;;;;;;;5.73;4.00;;;;;;;;;;5055834;28;20974;-57
2021/08/16 12:41:02;;;;;;;4.63;4.00;;;;;;;;;;5056248;28;20519;-57
2021/08/16 12:43:36;;;;;;;5.53;4.50;;;;;;;;;;5056216;28;20522;-58
2021/08/16 12:46:04;;;;;;;4.23;3.30;;;;;;;;;;5056398;28;20432;-58
2021/08/16 12:48:38;;;;;;;4.90;3.80;;;;;;;;;;5055896;28;20940;-58
2021/08/16 12:51:06;;;;;;;4.50;3.97;;;;;;;;;;5055964;28;20517;-58
2021/08/16 12:53:34;;;;;;;4.60;3.80;;;;;;;;;;5056247;28;20802;-59
2021/08/16 12:56:01;;;;;;;4.20;3.80;;;;;;;;;;5056205;28;20452;-59
2021/08/16 12:58:29;;;;;;;5.80;4.10;;;;;;;;;;5055654;28;21001;-58
2021/08/16 13:00:56;;;;;;;8.07;4.47;;;;;;;;;;5055415;28;20554;-58
2021/08/16 13:03:23;;;;;;;5.33;4.50;;;;;;;;;;5055796;28;20497;-58
2021/08/16 13:05:50;;;;;;;3.60;3.20;;;;;;;;;;5055619;28;20444;-59
2021/08/16 13:08:18;;;;;;;5.80;3.60;;;;;;;;;;5055753;28;20444;-58
2021/08/16 13:10:46;;;;;;;3.67;3.37;;;;;;;;;;5055837;28;20830;-57
2021/08/16 13:13:13;;;;;;;6.23;3.43;;;;;;;;;;5055563;28;20501;-58
2021/08/16 13:15:41;;;;;;;4.37;3.70;;;;;;;;;;5055456;28;20443;-59
2021/08/16 13:18:08;;;;;;;3.77;3.47;;;;;;;;;;5056235;28;20822;-59
2021/08/16 13:20:37;;;;;;;6.63;4.13;;;;;;;;;;5055395;28;20494;-59
2021/08/16 13:23:04;;;;;;;11.67;4.33;;;;;;;;;;5055327;28;20885;-60
2021/08/16 13:25:34;;;;;;;5.73;4.30;;;;;;;;;;5055346;28;20448;-59
2021/08/16 13:28:02;;;;;;;6.50;4.60;;;;;;;;;;5055329;28;20479;-58
2021/08/16 13:30:30;;;;;;;6.10;3.57;;;;;;;;;;5055326;28;20476;-59
2021/08/16 13:32:57;;;;;;;6.77;3.63;;;;;;;;;;5055364;28;20444;-59
2021/08/16 13:35:25;;;;;;;6.23;3.90;;;;;;;;;;5055536;28;20903;-59
2021/08/16 13:37:52;;;;;;;5.80;3.83;;;;;;;;;;5056439;28;20998;-58
2021/08/16 13:40:19;;;;;;;5.50;4.50;;;;;;;;;;5056640;28;20494;-59
2021/08/16 13:42:47;;;;;;;6.80;5.20;;;;;;;;;;5056849;28;20934;-60
2021/08/16 13:45:16;;;;;;;4.47;3.63;;;;;;;;;;5055603;28;20471;-58
2021/08/16 13:47:43;;;;;;;6.90;3.90;;;;;;;;;;5055575;28;20448;-58
2021/08/16 13:50:11;;;;;;;5.70;4.70;;;;;;;;;;5055304;28;20480;-58
2021/08/16 13:52:38;;;;;;;6.37;3.90;;;;;;;;;;5055538;28;20440;-58
2021/08/16 13:55:06;;;;;;;4.57;3.50;;;;;;;;;;5055150;28;20518;-58
2021/08/16 13:57:33;;;;;;;3.40;3.07;;;;;;;;;;5055235;28;20452;-58
2021/08/16 14:00:00;;;;;;;4.27;3.37;;;;;;;;;;5055174;28;20502;-58
2021/08/16 14:02:29;;;;;;;4.17;3.33;;;;;;;;;;5054768;28;20448;-59
2021/08/16 14:04:56;;;;;;;5.27;4.03;;;;;;;;;;5054627;28;21113;-58
2021/08/16 14:07:23;;;;;;;4.20;3.70;;;;;;;;;;5054994;28;20521;-58
2021/08/16 14:09:50;;;;;;;9.13;4.67;;;;;;;;;;5054740;28;20476;-59
2021/08/16 14:12:18;;;;;;;3.90;3.40;;;;;;;;;;5054605;28;20964;-58
2021/08/16 14:14:45;;;;;;;8.00;4.20;;;;;;;;;;5054789;28;20516;-58
2021/08/16 14:17:13;;;;;;;4.63;3.53;;;;;;;;;;5055184;28;20928;-59
2021/08/16 14:19:41;;;;;;;5.10;3.07;;;;;;;;;;5055059;28;20440;-59
2021/08/16 14:22:10;;;;;;;6.17;3.50;;;;;;;;;;5054652;28;20452;-59
2021/08/16 14:24:38;;;;;;;3.63;2.93;;;;;;;;;;5054429;28;20555;-59
2021/08/16 14:27:06;;;;;;;4.10;2.67;;;;;;;;;;5054661;28;20451;-59
2021/08/16 14:29:33;;;;;;;7.33;3.50;;;;;;;;;;5054630;28;20623;-56
2021/08/16 14:32:02;;;;;;;6.47;3.73;;;;;;;;;;5055230;28;20526;-58
2021/08/16 14:34:29;;;;;;;6.43;3.00;;;;;;;;;;5054284;28;20483;-59
2021/08/16 14:36:57;;;;;;;5.13;3.40;;;;;;;;;;5054316;28;20807;-59
2021/08/16 14:39:25;;;;;;;5.10;4.07;;;;;;;;;;5054405;28;20447;-59
2021/08/16 14:41:54;;;;;;;7.97;3.60;;;;;;;;;;5053762;28;20440;-59
2021/08/16 14:44:21;;;;;;;5.97;3.30;;;;;;;;;;5054097;28;21047;-59
2021/08/16 14:46:48;;;;;;;9.60;4.00;;;;;;;;;;5054190;28;20444;-58